Time;durP1;ratioP1;P1;durP2;ratioP2;P2;SDS_P1;SDS_P2;PMS_P1;PMS_P2;Temp;Humidity;BMP_temperature;BMP_pressure;BME280_temperature;BME280_humidity;BME280_pressure;Samples;Min_cycle;Max_cycle;Signal;HPM_P1;HPM_P2
2022/03/22 00:00:10;;;;;;;49.33;30.15;;;;;;;;;;5049978;28;20043;-61
2022/03/22 00:02:36;;;;;;;46.35;29.88;;;;;;;;;;5050828;28;20048;-61
2022/03/22 00:05:03;;;;;;;43.63;29.05;;;;;;;;;;5051002;28;20514;-61
2022/03/22 00:07:29;;;;;;;44.83;29.73;;;;;;;;;;5050569;28;20463;-61
2022/03/22 00:09:55;;;;;;;51.78;31.60;;;;;;;;;;5051294;28;20029;-61
2022/03/22 00:12:21;;;;;;;44.95;29.40;;;;;;;;;;5051151;28;20384;-61
2022/03/22 00:14:48;;;;;;;46.17;30.00;;;;;;;;;;5032307;28;20049;-61
2022/03/22 00:17:14;;;;;;;44.50;29.50;;;;;;;;;;5032756;28;20084;-61
2022/03/22 00:19:40;;;;;;;42.63;29.08;;;;;;;;;;5032579;28;20133;-61
2022/03/22 00:22:06;;;;;;;46.97;30.20;;;;;;;;;;5032662;28;20041;-61
2022/03/22 00:24:33;;;;;;;47.40;30.80;;;;;;;;;;5032806;28;20082;-61
2022/03/22 00:26:59;;;;;;;51.03;31.85;;;;;;;;;;5050361;28;20068;-61
2022/03/22 00:29:25;;;;;;;44.90;28.23;;;;;;;;;;5031849;28;20424;-61
2022/03/22 00:31:51;;;;;;;45.83;29.50;;;;;;;;;;5065365;28;20045;-61
2022/03/22 00:34:17;;;;;;;45.05;28.50;;;;;;;;;;5050075;28;20387;-61
2022/03/22 00:36:45;;;;;;;45.47;28.83;;;;;;;;;;5050286;28;20029;-61
2022/03/22 00:39:11;;;;;;;45.13;28.30;;;;;;;;;;5050701;28;20524;-61
2022/03/22 00:41:37;;;;;;;44.17;29.10;;;;;;;;;;5051541;28;20098;-61
2022/03/22 00:44:04;;;;;;;42.75;28.75;;;;;;;;;;5032268;28;20441;-61
2022/03/22 00:46:30;;;;;;;46.40;28.80;;;;;;;;;;5050312;28;20045;-61
2022/03/22 00:48:58;;;;;;;48.22;29.67;;;;;;;;;;5032495;28;20041;-61
2022/03/22 00:51:25;;;;;;;48.33;30.60;;;;;;;;;;5049422;28;20045;-61
2022/03/22 00:53:51;;;;;;;48.85;30.58;;;;;;;;;;5050542;28;20120;-61
2022/03/22 00:56:18;;;;;;;48.45;31.80;;;;;;;;;;5049606;28;20044;-61
2022/03/22 00:58:44;;;;;;;46.67;30.92;;;;;;;;;;5031054;28;20369;-61
2022/03/22 01:01:10;;;;;;;45.30;30.60;;;;;;;;;;5063065;28;20041;-61
2022/03/22 01:03:36;;;;;;;46.35;29.67;;;;;;;;;;5058959;28;20044;-61
2022/03/22 01:06:04;;;;;;;46.55;31.83;;;;;;;;;;5064033;28;20087;-61
2022/03/22 01:08:30;;;;;;;46.72;31.55;;;;;;;;;;5050266;28;20033;-61
2022/03/22 01:10:57;;;;;;;44.33;29.88;;;;;;;;;;5049624;28;20472;-61
2022/03/22 01:13:24;;;;;;;48.40;31.23;;;;;;;;;;5050166;28;20116;-61
2022/03/22 01:15:50;;;;;;;47.58;32.20;;;;;;;;;;5050385;28;20040;-61
2022/03/22 01:18:17;;;;;;;49.38;31.95;;;;;;;;;;5049411;28;20045;-62
2022/03/22 01:20:46;;;;;;;52.20;31.98;;;;;;;;;;5050035;28;20045;-61
2022/03/22 01:23:12;;;;;;;55.97;30.80;;;;;;;;;;5050227;28;20043;-61
2022/03/22 01:25:39;;;;;;;48.35;32.05;;;;;;;;;;5049501;28;20129;-61
2022/03/22 01:28:08;;;;;;;47.85;31.40;;;;;;;;;;5031817;28;20061;-61
2022/03/22 01:30:34;;;;;;;48.47;30.63;;;;;;;;;;5052737;28;20376;-61
2022/03/22 01:33:00;;;;;;;45.72;29.95;;;;;;;;;;5035501;28;20442;-61
2022/03/22 01:35:27;;;;;;;46.97;30.38;;;;;;;;;;5053611;28;20033;-61
2022/03/22 01:37:54;;;;;;;46.67;30.80;;;;;;;;;;5054123;28;20087;-62
2022/03/22 01:40:21;;;;;;;46.97;31.95;;;;;;;;;;5053537;28;20045;-61
2022/03/22 01:42:47;;;;;;;50.33;30.92;;;;;;;;;;5054245;28;20049;-62
2022/03/22 01:45:13;;;;;;;50.20;32.58;;;;;;;;;;5053814;28;20076;-61
2022/03/22 01:47:41;;;;;;;45.13;31.10;;;;;;;;;;5052986;28;20535;-61
2022/03/22 01:50:08;;;;;;;45.22;30.42;;;;;;;;;;5053302;28;20120;-61
2022/03/22 01:52:37;;;;;;;54.47;34.40;;;;;;;;;;5052568;28;20037;-61
2022/03/22 01:55:04;;;;;;;52.08;31.35;;;;;;;;;;5053304;28;20049;-61
2022/03/22 01:57:32;;;;;;;49.33;32.00;;;;;;;;;;5035329;28;20040;-61
2022/03/22 01:59:58;;;;;;;62.35;36.22;;;;;;;;;;5052298;28;20049;-61
2022/03/22 02:07:57;;;;;;;49.25;33.35;;;;;;;;;;5052407;28;20115;-61
2022/03/22 02:10:23;;;;;;;53.58;34.08;;;;;;;;;;5053294;28;20112;-61
2022/03/22 02:12:49;;;;;;;51.58;33.78;;;;;;;;;;5053092;28;20041;-61
2022/03/22 02:15:16;;;;;;;51.60;34.25;;;;;;;;;;5052357;28;20044;-61
2022/03/22 02:17:45;;;;;;;55.17;34.47;;;;;;;;;;5053057;28;20111;-61
2022/03/22 02:20:12;;;;;;;54.75;35.00;;;;;;;;;;5050806;28;20102;-61
2022/03/22 02:22:42;;;;;;;54.22;35.42;;;;;;;;;;5052592;28;20045;-61
2022/03/22 02:25:15;;;;;;;55.03;35.08;;;;;;;;;;5053123;28;20120;-61
2022/03/22 02:27:44;;;;;;;50.60;34.65;;;;;;;;;;5034050;28;20048;-61
2022/03/22 02:30:12;;;;;;;58.40;37.70;;;;;;;;;;5052254;28;20091;-61
2022/03/22 02:32:38;;;;;;;61.05;34.58;;;;;;;;;;5052684;28;20449;-62
2022/03/22 02:35:05;;;;;;;56.30;35.17;;;;;;;;;;5051618;28;20064;-61
2022/03/22 02:37:32;;;;;;;60.72;37.10;;;;;;;;;;5066850;28;20049;-61
2022/03/22 02:39:58;;;;;;;57.95;35.78;;;;;;;;;;5052661;28;20045;-61
2022/03/22 02:42:24;;;;;;;54.63;36.33;;;;;;;;;;5052479;28;20037;-61
2022/03/22 02:44:50;;;;;;;61.97;34.75;;;;;;;;;;5052301;28;20072;-61
2022/03/22 02:47:16;;;;;;;55.83;35.83;;;;;;;;;;5034719;28;20052;-61
2022/03/22 02:49:42;;;;;;;53.03;35.88;;;;;;;;;;5051481;28;20079;-62
2022/03/22 02:52:08;;;;;;;51.70;35.28;;;;;;;;;;5034210;28;20128;-61
2022/03/22 02:54:35;;;;;;;55.67;35.60;;;;;;;;;;5034476;28;20060;-61
2022/03/22 02:57:01;;;;;;;52.45;35.17;;;;;;;;;;5035492;28;20044;-61
2022/03/22 02:59:27;;;;;;;58.58;35.33;;;;;;;;;;5052322;28;20047;-62
2022/03/22 03:01:54;;;;;;;55.75;36.60;;;;;;;;;;5034555;28;20103;-61
2022/03/22 03:04:20;;;;;;;57.60;36.72;;;;;;;;;;5051370;28;20136;-61
2022/03/22 03:06:47;;;;;;;54.78;35.85;;;;;;;;;;5048387;28;20048;-61
2022/03/22 03:09:13;;;;;;;52.03;33.80;;;;;;;;;;5047758;28;20045;-61
2022/03/22 03:11:39;;;;;;;56.53;36.83;;;;;;;;;;5029920;28;20140;-61
2022/03/22 03:16:50;;;;;;;66.40;38.90;;;;;;;;;;5049574;28;20370;-61
2022/03/22 03:19:16;;;;;;;57.72;35.55;;;;;;;;;;5048586;28;20066;-61
2022/03/22 03:21:42;;;;;;;55.63;37.50;;;;;;;;;;5051672;28;20546;-61
2022/03/22 03:24:09;;;;;;;55.97;38.60;;;;;;;;;;5032788;28;20053;-61
2022/03/22 03:26:36;;;;;;;58.63;36.67;;;;;;;;;;5051859;28;20041;-61
2022/03/22 03:29:02;;;;;;;55.97;36.38;;;;;;;;;;5033849;28;20381;-61
2022/03/22 03:31:28;;;;;;;58.05;36.45;;;;;;;;;;5050795;28;20094;-62
2022/03/22 03:33:54;;;;;;;54.03;37.28;;;;;;;;;;5051391;28;20048;-62
2022/03/22 03:36:21;;;;;;;53.88;36.00;;;;;;;;;;5049900;28;20503;-61
2022/03/22 03:38:47;;;;;;;58.35;37.42;;;;;;;;;;5050889;28;20510;-61
2022/03/22 03:43:58;;;;;;;58.70;37.83;;;;;;;;;;5051908;28;20045;-62
2022/03/22 03:49:09;;;;;;;57.65;37.25;;;;;;;;;;5066489;28;20044;-61
2022/03/22 03:51:36;;;;;;;53.00;36.67;;;;;;;;;;5032570;28;20056;-62
2022/03/22 03:54:02;;;;;;;57.67;37.70;;;;;;;;;;5050340;28;20075;-61
2022/03/22 03:56:29;;;;;;;52.97;35.85;;;;;;;;;;5033466;28;20131;-61
2022/03/22 03:58:57;;;;;;;55.45;35.17;;;;;;;;;;5051294;28;20405;-62
2022/03/22 04:01:25;;;;;;;54.50;36.30;;;;;;;;;;5031189;28;20072;-61
2022/03/22 04:03:51;;;;;;;54.88;36.58;;;;;;;;;;5031716;28;20087;-61
2022/03/22 04:06:17;;;;;;;49.08;32.70;;;;;;;;;;5050129;28;20032;-61
2022/03/22 04:08:43;;;;;;;52.50;35.58;;;;;;;;;;5050264;28;20204;-61
2022/03/22 04:11:10;;;;;;;66.55;36.53;;;;;;;;;;5050904;28;20041;-61
2022/03/22 04:13:37;;;;;;;57.72;37.88;;;;;;;;;;5050350;28;20041;-61
2022/03/22 04:16:03;;;;;;;59.25;36.85;;;;;;;;;;5049537;28;20045;-61
2022/03/22 04:18:29;;;;;;;53.35;37.38;;;;;;;;;;5032638;28;20036;-61
2022/03/22 04:20:55;;;;;;;56.85;37.65;;;;;;;;;;5064929;28;20048;-62
2022/03/22 04:23:21;;;;;;;55.92;37.60;;;;;;;;;;5050573;28;20083;-61
2022/03/22 04:25:47;;;;;;;58.03;37.92;;;;;;;;;;5050721;28;20049;-62
2022/03/22 04:33:43;;;;;;;55.33;38.78;;;;;;;;;;5063809;28;20048;-61
2022/03/22 04:36:11;;;;;;;54.72;36.00;;;;;;;;;;5049711;28;20049;-61
2022/03/22 04:38:37;;;;;;;60.53;38.22;;;;;;;;;;5051406;28;20049;-61
2022/03/22 04:41:04;;;;;;;60.75;37.90;;;;;;;;;;5051299;28;20045;-61
2022/03/22 04:43:30;;;;;;;56.90;36.78;;;;;;;;;;5049880;28;20468;-61
2022/03/22 04:45:56;;;;;;;58.25;37.92;;;;;;;;;;5050251;28;20048;-61
2022/03/22 04:48:22;;;;;;;52.70;35.90;;;;;;;;;;5049735;28;20816;-61
2022/03/22 04:56:43;;;;;;;59.20;38.85;;;;;;;;;;5032723;28;20063;-61
2022/03/22 04:56:43;;;;;;;55.10;37.88;;;;;;;;;;5048974;28;20040;-61
2022/03/22 04:59:09;;;;;;;62.33;39.15;;;;;;;;;;5050324;28;20037;-61
2022/03/22 05:01:35;;;;;;;57.20;38.58;;;;;;;;;;5050381;28;20063;-61
2022/03/22 05:04:02;;;;;;;59.35;38.08;;;;;;;;;;5052155;28;20045;-61
2022/03/22 05:06:28;;;;;;;63.45;39.40;;;;;;;;;;5054485;28;20091;-61
2022/03/22 05:08:55;;;;;;;59.95;39.20;;;;;;;;;;5053535;28;20037;-61
2022/03/22 05:11:21;;;;;;;62.22;39.47;;;;;;;;;;5052946;28;20368;-61
2022/03/22 05:13:47;;;;;;;63.42;39.63;;;;;;;;;;5035951;28;20052;-62
2022/03/22 05:16:14;;;;;;;64.22;40.83;;;;;;;;;;5054210;28;20132;-61
2022/03/22 05:18:41;;;;;;;63.92;39.13;;;;;;;;;;5046840;28;20503;-61
2022/03/22 05:21:08;;;;;;;56.13;38.10;;;;;;;;;;5044671;28;20041;-61
2022/03/22 05:23:34;;;;;;;59.83;38.22;;;;;;;;;;5050519;28;20064;-61
2022/03/22 05:26:00;;;;;;;58.00;38.80;;;;;;;;;;5035968;28;20496;-61
2022/03/22 05:28:27;;;;;;;57.55;37.70;;;;;;;;;;5036210;28;20117;-61
2022/03/22 05:30:53;;;;;;;60.55;39.35;;;;;;;;;;5031318;28;20065;-61
2022/03/22 05:33:19;;;;;;;53.72;35.10;;;;;;;;;;5034116;28;20106;-61
2022/03/22 05:35:45;;;;;;;56.38;35.88;;;;;;;;;;5033893;28;20041;-61
2022/03/22 05:38:12;;;;;;;56.35;36.28;;;;;;;;;;5030444;28;20098;-61
2022/03/22 05:40:39;;;;;;;52.00;33.95;;;;;;;;;;5034650;28;20056;-61
2022/03/22 05:43:06;;;;;;;50.70;31.92;;;;;;;;;;5034283;28;20041;-61
2022/03/22 05:45:32;;;;;;;48.17;31.45;;;;;;;;;;5033040;28;20208;-61
2022/03/22 05:48:01;;;;;;;47.92;32.55;;;;;;;;;;5030995;28;20042;-61
2022/03/22 05:50:28;;;;;;;53.15;35.03;;;;;;;;;;5033375;28;20041;-61
2022/03/22 05:52:54;;;;;;;50.65;34.08;;;;;;;;;;5031724;28;20061;-61
2022/03/22 05:55:20;;;;;;;57.15;33.88;;;;;;;;;;5032392;28;20046;-61
2022/03/22 05:57:46;;;;;;;60.17;36.65;;;;;;;;;;5031251;28;20179;-62
2022/03/22 06:00:13;;;;;;;53.40;35.25;;;;;;;;;;5029849;28;20053;-61
2022/03/22 06:02:40;;;;;;;49.20;31.40;;;;;;;;;;5031946;28;20041;-62
2022/03/22 06:05:08;;;;;;;52.30;34.15;;;;;;;;;;5035710;28;20473;-61
2022/03/22 06:07:35;;;;;;;50.67;32.42;;;;;;;;;;5029393;28;20041;-62
2022/03/22 06:10:01;;;;;;;52.10;32.63;;;;;;;;;;5029574;28;20051;-61
2022/03/22 06:12:33;;;;;;;47.13;32.33;;;;;;;;;;5030234;28;20069;-62
2022/03/22 06:15:15;;;;;;;52.55;34.03;;;;;;;;;;5029027;28;20384;-61
2022/03/22 06:17:41;;;;;;;49.20;32.70;;;;;;;;;;5030656;28;20055;-62
2022/03/22 06:20:08;;;;;;;49.22;32.83;;;;;;;;;;5031408;28;20053;-61
2022/03/22 06:22:35;;;;;;;53.97;35.92;;;;;;;;;;5032888;28;20046;-61
2022/03/22 06:25:01;;;;;;;59.55;36.38;;;;;;;;;;5032952;28;20404;-62
2022/03/22 06:27:27;;;;;;;52.50;35.33;;;;;;;;;;5030427;28;20042;-61
2022/03/22 06:29:53;;;;;;;60.85;34.78;;;;;;;;;;5041146;28;20566;-62
2022/03/22 06:32:19;;;;;;;52.70;35.88;;;;;;;;;;5052262;28;20041;-62
2022/03/22 06:34:47;;;;;;;55.63;35.80;;;;;;;;;;5051679;28;20040;-61
2022/03/22 06:37:13;;;;;;;60.50;35.97;;;;;;;;;;5051944;28;20089;-62
2022/03/22 06:39:40;;;;;;;55.10;36.10;;;;;;;;;;5047276;28;20034;-61
2022/03/22 06:42:06;;;;;;;55.80;36.15;;;;;;;;;;5014635;28;20052;-61
2022/03/22 06:44:35;;;;;;;60.50;38.55;;;;;;;;;;5035162;28;20053;-61
2022/03/22 06:47:01;;;;;;;58.45;38.38;;;;;;;;;;5033703;28;20041;-61
2022/03/22 06:49:28;;;;;;;61.85;39.50;;;;;;;;;;5047696;28;20087;-61
2022/03/22 06:51:54;;;;;;;63.25;39.60;;;;;;;;;;5033131;28;20543;-62
2022/03/22 06:54:22;;;;;;;56.45;39.25;;;;;;;;;;5033503;28;20108;-62
2022/03/22 06:56:48;;;;;;;61.65;40.42;;;;;;;;;;5014804;28;20488;-62
2022/03/22 06:59:14;;;;;;;63.85;40.13;;;;;;;;;;5037515;28;20073;-62
2022/03/22 07:01:40;;;;;;;58.50;39.03;;;;;;;;;;5035180;28;20120;-63
2022/03/22 07:04:06;;;;;;;66.35;42.05;;;;;;;;;;5034687;28;20053;-62
2022/03/22 07:06:33;;;;;;;69.40;44.17;;;;;;;;;;5048509;28;20068;-62
2022/03/22 07:09:00;;;;;;;64.07;42.78;;;;;;;;;;5032702;28;20120;-61
2022/03/22 07:11:55;;;;;;;65.00;43.25;;;;;;;;;;5032718;28;20444;-61
2022/03/22 07:14:22;;;;;;;64.50;42.90;;;;;;;;;;5037162;28;20056;-61
2022/03/22 07:16:49;;;;;;;67.72;43.00;;;;;;;;;;5045226;28;20045;-61
2022/03/22 07:19:15;;;;;;;69.70;44.25;;;;;;;;;;5040725;28;20033;-61
2022/03/22 07:21:43;;;;;;;69.45;44.10;;;;;;;;;;5043509;28;20040;-62
2022/03/22 07:24:10;;;;;;;68.72;44.17;;;;;;;;;;5041318;28;20369;-62
2022/03/22 07:26:37;;;;;;;64.80;43.75;;;;;;;;;;5058934;28;20115;-62
2022/03/22 07:29:03;;;;;;;62.38;41.25;;;;;;;;;;5041282;28;20044;-61
2022/03/22 07:31:30;;;;;;;62.92;42.30;;;;;;;;;;5038171;28;20369;-62
2022/03/22 07:33:56;;;;;;;61.05;42.65;;;;;;;;;;5041505;28;20041;-61
2022/03/22 07:36:23;;;;;;;63.88;44.15;;;;;;;;;;5058315;28;20080;-62
2022/03/22 07:38:49;;;;;;;65.22;42.50;;;;;;;;;;5040664;28;20044;-62
2022/03/22 07:41:15;;;;;;;61.85;42.97;;;;;;;;;;5045747;28;20045;-62
2022/03/22 07:43:42;;;;;;;61.85;41.95;;;;;;;;;;5043068;28;20417;-62
2022/03/22 07:46:09;;;;;;;70.47;45.13;;;;;;;;;;5039687;28;20038;-62
2022/03/22 07:48:35;;;;;;;59.05;42.03;;;;;;;;;;5042404;28;20037;-62
2022/03/22 07:53:46;;;;;;;64.60;43.00;;;;;;;;;;5045006;28;20045;-62
2022/03/22 07:56:12;;;;;;;63.25;42.42;;;;;;;;;;5033907;28;20204;-62
2022/03/22 07:58:38;;;;;;;61.88;43.30;;;;;;;;;;5033373;28;20045;-62
2022/03/22 08:01:05;;;;;;;60.45;42.03;;;;;;;;;;5051859;28;20037;-62
2022/03/22 08:03:31;;;;;;;56.72;40.60;;;;;;;;;;5051926;28;20503;-62
2022/03/22 08:05:59;;;;;;;59.85;40.90;;;;;;;;;;5051125;28;20033;-62
2022/03/22 08:08:26;;;;;;;59.00;39.22;;;;;;;;;;5051687;28;20036;-62
2022/03/22 08:10:52;;;;;;;62.75;41.95;;;;;;;;;;5051824;28;20045;-62
2022/03/22 08:13:18;;;;;;;58.35;39.47;;;;;;;;;;5032955;28;20057;-62
2022/03/22 08:15:45;;;;;;;59.28;42.60;;;;;;;;;;5033532;28;20041;-62
2022/03/22 08:18:11;;;;;;;60.28;39.55;;;;;;;;;;5052044;28;20041;-62
2022/03/22 08:20:37;;;;;;;64.97;41.33;;;;;;;;;;5050625;28;20396;-62
2022/03/22 08:23:04;;;;;;;59.28;39.45;;;;;;;;;;5033379;28;20056;-62
2022/03/22 08:25:31;;;;;;;63.08;40.25;;;;;;;;;;5051454;28;20048;-62
2022/03/22 08:27:59;;;;;;;59.85;39.85;;;;;;;;;;5032753;28;20053;-62
2022/03/22 08:30:26;;;;;;;55.78;39.88;;;;;;;;;;5051285;28;20446;-63
2022/03/22 08:32:53;;;;;;;58.03;38.63;;;;;;;;;;5051224;28;20464;-62
2022/03/22 08:35:20;;;;;;;59.22;38.92;;;;;;;;;;5050964;28;20116;-62
2022/03/22 08:37:46;;;;;;;50.67;37.90;;;;;;;;;;5050883;28;20065;-62
2022/03/22 08:40:14;;;;;;;54.15;38.15;;;;;;;;;;5051421;28;20047;-62
2022/03/22 08:42:43;;;;;;;57.63;38.03;;;;;;;;;;5050354;28;20033;-62
2022/03/22 08:45:10;;;;;;;53.72;37.88;;;;;;;;;;5050786;28;20461;-62
2022/03/22 08:47:36;;;;;;;57.92;36.10;;;;;;;;;;5049223;28;20045;-62
2022/03/22 08:50:05;;;;;;;53.63;36.45;;;;;;;;;;5050526;28;20498;-62
2022/03/22 08:52:32;;;;;;;55.00;38.58;;;;;;;;;;5050430;28;20053;-62
2022/03/22 08:54:59;;;;;;;54.95;37.72;;;;;;;;;;5045913;28;20051;-62
2022/03/22 08:57:25;;;;;;;52.33;37.33;;;;;;;;;;5050332;28;20040;-62
2022/03/22 08:59:51;;;;;;;52.88;36.97;;;;;;;;;;5050118;28;20381;-62
2022/03/22 09:02:17;;;;;;;53.50;36.15;;;;;;;;;;5050294;28;20450;-62
2022/03/22 09:07:28;;;;;;;58.85;37.40;;;;;;;;;;5036347;28;20140;-62
2022/03/22 09:09:55;;;;;;;53.45;37.35;;;;;;;;;;5035849;28;20040;-62
2022/03/22 09:12:21;;;;;;;54.00;37.97;;;;;;;;;;5058167;28;20084;-62
2022/03/22 09:14:47;;;;;;;53.67;36.75;;;;;;;;;;5040475;28;20037;-62
2022/03/22 09:17:13;;;;;;;55.25;36.58;;;;;;;;;;5036454;28;20062;-62
2022/03/22 09:19:39;;;;;;;51.60;35.45;;;;;;;;;;5043181;28;20037;-62
2022/03/22 09:22:07;;;;;;;53.80;35.60;;;;;;;;;;5045461;28;20041;-62
2022/03/22 09:24:34;;;;;;;50.10;36.30;;;;;;;;;;5039476;28;20129;-62
2022/03/22 09:27:01;;;;;;;51.65;36.30;;;;;;;;;;5042418;28;20045;-62
2022/03/22 09:29:27;;;;;;;56.75;36.35;;;;;;;;;;5057349;28;20056;-62
2022/03/22 09:31:54;;;;;;;51.70;36.58;;;;;;;;;;5042336;28;20380;-62
2022/03/22 09:34:21;;;;;;;54.05;37.30;;;;;;;;;;5041517;28;20492;-62
2022/03/22 09:36:48;;;;;;;52.53;35.97;;;;;;;;;;5038576;28;20048;-62
2022/03/22 09:39:14;;;;;;;56.95;37.03;;;;;;;;;;5037412;28;20533;-62
2022/03/22 09:41:41;;;;;;;49.75;35.58;;;;;;;;;;5041614;28;20112;-62
2022/03/22 09:44:09;;;;;;;53.78;35.25;;;;;;;;;;5056221;28;20045;-62
2022/03/22 09:46:36;;;;;;;46.30;32.42;;;;;;;;;;5038332;28;20360;-62
2022/03/22 09:49:02;;;;;;;46.92;34.08;;;;;;;;;;5019741;28;20534;-62
2022/03/22 09:51:47;;;;;;;44.60;32.63;;;;;;;;;;5045156;28;20128;-62
2022/03/22 09:54:14;;;;;;;52.58;36.55;;;;;;;;;;5044716;28;20483;-62
2022/03/22 09:56:41;;;;;;;51.80;36.00;;;;;;;;;;5043427;28;20033;-62
2022/03/22 09:59:08;;;;;;;51.42;36.40;;;;;;;;;;5026393;28;20091;-63
2022/03/22 10:01:34;;;;;;;52.13;38.95;;;;;;;;;;5039544;28;20117;-63
2022/03/22 10:04:01;;;;;;;51.28;36.05;;;;;;;;;;5046299;28;20036;-63
2022/03/22 10:06:28;;;;;;;46.60;32.58;;;;;;;;;;5039016;28;20036;-62
2022/03/22 10:08:55;;;;;;;46.28;33.40;;;;;;;;;;5046022;28;20102;-63
2022/03/22 10:11:21;;;;;;;49.47;33.80;;;;;;;;;;5038285;28;20041;-63
2022/03/22 10:13:51;;;;;;;41.80;31.88;;;;;;;;;;5043902;28;20544;-63
2022/03/22 10:16:17;;;;;;;46.67;32.42;;;;;;;;;;5048365;28;20163;-63
2022/03/22 10:18:43;;;;;;;47.40;32.08;;;;;;;;;;5050378;28;20056;-63
2022/03/22 10:21:09;;;;;;;43.17;32.92;;;;;;;;;;5048141;28;20420;-62
2022/03/22 10:23:47;;;;;;;48.42;35.17;;;;;;;;;;5050917;28;20045;-63
2022/03/22 10:26:13;;;;;;;44.90;33.28;;;;;;;;;;5062160;28;20183;-63
2022/03/22 10:28:49;;;;;;;53.78;34.00;;;;;;;;;;5050952;28;20048;-62
2022/03/22 10:31:16;;;;;;;43.33;32.72;;;;;;;;;;5028062;28;20476;-63
2022/03/22 10:33:50;;;;;;;46.38;32.70;;;;;;;;;;5045008;28;20094;-62
2022/03/22 10:36:16;;;;;;;48.05;32.92;;;;;;;;;;5045811;28;20473;-62
2022/03/22 10:38:53;;;;;;;45.75;34.72;;;;;;;;;;5046376;28;20444;-63
2022/03/22 10:41:24;;;;;;;48.63;33.63;;;;;;;;;;5043524;28;20036;-63
2022/03/22 10:44:00;;;;;;;48.80;34.22;;;;;;;;;;5059364;28;20048;-63
2022/03/22 10:46:27;;;;;;;47.35;33.08;;;;;;;;;;5059162;28;20048;-63
2022/03/22 10:49:01;;;;;;;47.65;34.25;;;;;;;;;;5045618;28;20065;-62
2022/03/22 10:51:34;;;;;;;46.35;33.90;;;;;;;;;;5046633;28;20049;-63
2022/03/22 10:54:01;;;;;;;50.00;34.97;;;;;;;;;;5047689;28;20038;-62
2022/03/22 10:56:27;;;;;;;49.58;36.33;;;;;;;;;;5046376;28;20561;-63
2022/03/22 10:58:55;;;;;;;51.33;33.30;;;;;;;;;;5047068;28;20048;-63
2022/03/22 11:01:22;;;;;;;50.00;34.75;;;;;;;;;;5044599;28;20079;-63
2022/03/22 11:03:49;;;;;;;52.45;34.67;;;;;;;;;;5048117;28;20048;-62
2022/03/22 11:06:16;;;;;;;46.90;34.03;;;;;;;;;;5063329;28;20187;-63
2022/03/22 11:08:43;;;;;;;55.97;34.03;;;;;;;;;;5047199;28;20353;-63
2022/03/22 11:11:09;;;;;;;45.70;30.42;;;;;;;;;;5049980;28;20051;-63
2022/03/22 11:13:36;;;;;;;40.83;29.30;;;;;;;;;;5049893;28;20400;-63
2022/03/22 11:16:02;;;;;;;39.92;28.60;;;;;;;;;;5048834;28;20044;-63
2022/03/22 11:18:30;;;;;;;41.83;27.70;;;;;;;;;;5064760;28;20052;-63
2022/03/22 11:20:57;;;;;;;40.95;29.10;;;;;;;;;;5046708;28;20047;-63
2022/03/22 11:23:24;;;;;;;39.53;29.30;;;;;;;;;;5048403;28;20511;-63
2022/03/22 11:25:51;;;;;;;38.00;27.05;;;;;;;;;;5049419;28;20125;-63
2022/03/22 11:28:18;;;;;;;38.47;27.75;;;;;;;;;;5049937;28;20124;-63
2022/03/22 11:30:44;;;;;;;41.17;28.75;;;;;;;;;;5061313;28;20052;-63
2022/03/22 11:35:57;;;;;;;36.67;27.13;;;;;;;;;;5044973;28;20051;-63
2022/03/22 11:38:42;;;;;;;38.53;27.13;;;;;;;;;;5040907;28;20037;-63
2022/03/22 11:44:14;;;;;;;35.90;26.25;;;;;;;;;;5042438;28;20121;-63
2022/03/22 11:46:41;;;;;;;33.30;25.40;;;;;;;;;;5039776;28;20075;-63
2022/03/22 11:49:11;;;;;;;33.28;25.83;;;;;;;;;;5044549;28;20047;-63
2022/03/22 11:51:47;;;;;;;35.53;26.83;;;;;;;;;;5039202;28;20050;-63
2022/03/22 11:54:13;;;;;;;32.83;25.65;;;;;;;;;;5040100;28;20052;-63
2022/03/22 11:56:48;;;;;;;33.53;25.23;;;;;;;;;;5036592;28;20073;-63
2022/03/22 11:59:16;;;;;;;30.65;25.25;;;;;;;;;;5052181;28;20123;-63
2022/03/22 12:01:53;;;;;;;34.25;23.23;;;;;;;;;;5037511;28;20048;-63
2022/03/22 12:04:19;;;;;;;31.08;24.42;;;;;;;;;;5045547;28;20048;-63
2022/03/22 12:06:46;;;;;;;29.80;23.45;;;;;;;;;;5053766;28;20437;-63
2022/03/22 12:09:12;;;;;;;33.17;23.40;;;;;;;;;;5043556;28;20120;-63
2022/03/22 12:11:48;;;;;;;28.73;22.25;;;;;;;;;;5038560;28;20095;-63
2022/03/22 12:14:25;;;;;;;28.33;22.15;;;;;;;;;;5041571;28;20041;-63
2022/03/22 12:16:52;;;;;;;25.67;21.65;;;;;;;;;;5039057;28;20045;-63
2022/03/22 12:19:25;;;;;;;27.77;20.95;;;;;;;;;;5056842;28;20095;-63
2022/03/22 12:21:53;;;;;;;32.47;22.00;;;;;;;;;;5038400;28;20373;-63
2022/03/22 12:24:19;;;;;;;27.42;22.42;;;;;;;;;;5058988;28;20037;-63
2022/03/22 12:26:46;;;;;;;29.55;22.50;;;;;;;;;;5053062;28;20120;-63
2022/03/22 12:29:13;;;;;;;31.23;20.95;;;;;;;;;;5039908;28;20061;-63
2022/03/22 12:31:51;;;;;;;29.35;22.58;;;;;;;;;;5043596;28;20037;-63
2022/03/22 12:34:18;;;;;;;29.48;21.75;;;;;;;;;;5065593;28;20043;-63
2022/03/22 12:36:44;;;;;;;25.98;21.45;;;;;;;;;;5051010;28;20041;-63
2022/03/22 12:39:11;;;;;;;33.40;22.15;;;;;;;;;;5046503;28;20443;-63
2022/03/22 12:41:38;;;;;;;33.25;22.52;;;;;;;;;;5051564;28;20041;-63
2022/03/22 12:44:05;;;;;;;43.65;24.58;;;;;;;;;;5050866;28;20368;-63
2022/03/22 12:46:31;;;;;;;28.92;21.98;;;;;;;;;;5028501;28;20091;-63
2022/03/22 12:48:58;;;;;;;25.67;21.15;;;;;;;;;;5049665;28;20166;-63
2022/03/22 12:51:25;;;;;;;27.83;21.30;;;;;;;;;;5050298;28;20049;-63
2022/03/22 12:53:51;;;;;;;28.40;23.60;;;;;;;;;;5064882;28;20041;-63
2022/03/22 12:56:19;;;;;;;30.02;21.95;;;;;;;;;;5049943;28;20090;-63
2022/03/22 12:58:45;;;;;;;28.38;21.65;;;;;;;;;;5032475;28;20044;-63
2022/03/22 13:01:11;;;;;;;26.98;21.40;;;;;;;;;;5048982;28;20049;-63
2022/03/22 13:03:38;;;;;;;26.70;21.15;;;;;;;;;;5050128;28;20080;-63
2022/03/22 13:06:06;;;;;;;27.25;20.50;;;;;;;;;;5047669;28;20094;-63
2022/03/22 13:11:29;;;;;;;24.45;19.92;;;;;;;;;;5050327;28;20041;-63
2022/03/22 13:16:42;;;;;;;27.48;22.00;;;;;;;;;;5049586;28;20045;-63
2022/03/22 13:19:09;;;;;;;28.23;21.88;;;;;;;;;;5050122;28;20045;-63
2022/03/22 13:21:37;;;;;;;22.67;16.05;;;;;;;;;;5050134;28;20083;-63
2022/03/22 13:24:08;;;;;;;20.70;17.85;;;;;;;;;;5049805;28;20075;-63
2022/03/22 13:26:34;;;;;;;25.20;19.02;;;;;;;;;;5054091;28;20679;-63
2022/03/22 13:29:11;;;;;;;26.00;20.20;;;;;;;;;;5052856;28;20174;-64
2022/03/22 13:31:37;;;;;;;28.20;20.25;;;;;;;;;;5035880;28;20053;-63
2022/03/22 13:34:03;;;;;;;25.00;19.95;;;;;;;;;;5048721;28;20552;-63
2022/03/22 13:36:29;;;;;;;23.38;19.65;;;;;;;;;;5050181;28;20408;-63
2022/03/22 13:38:57;;;;;;;22.85;19.30;;;;;;;;;;5053273;28;20457;-62
2022/03/22 13:41:24;;;;;;;23.83;19.77;;;;;;;;;;5035097;28;20045;-63
2022/03/22 13:43:50;;;;;;;27.90;20.02;;;;;;;;;;5032912;28;20045;-63
2022/03/22 13:46:16;;;;;;;23.63;17.77;;;;;;;;;;5052407;28;20174;-63
2022/03/22 13:48:43;;;;;;;25.08;19.35;;;;;;;;;;5052233;28;20511;-63
2022/03/22 13:51:17;;;;;;;27.85;20.23;;;;;;;;;;5050501;28;20254;-63
2022/03/22 13:53:44;;;;;;;23.37;18.43;;;;;;;;;;5051428;28;20041;-63
2022/03/22 13:56:11;;;;;;;24.95;18.63;;;;;;;;;;5051554;28;20140;-63
2022/03/22 13:58:40;;;;;;;24.70;19.25;;;;;;;;;;5051052;28;20115;-63
2022/03/22 14:01:06;;;;;;;23.90;19.25;;;;;;;;;;5051268;28;20064;-63
2022/03/22 14:03:32;;;;;;;26.48;18.60;;;;;;;;;;5050375;28;20127;-63
2022/03/22 14:05:58;;;;;;;29.10;20.35;;;;;;;;;;5031670;28;20091;-63
2022/03/22 14:08:24;;;;;;;28.00;19.70;;;;;;;;;;5051556;28;20037;-63
2022/03/22 14:10:52;;;;;;;29.35;19.80;;;;;;;;;;5050959;28;20051;-63
2022/03/22 14:13:19;;;;;;;28.00;20.48;;;;;;;;;;5032592;28;20052;-63
2022/03/22 14:15:46;;;;;;;29.98;21.15;;;;;;;;;;5031369;28;20088;-63
2022/03/22 14:18:13;;;;;;;24.88;19.75;;;;;;;;;;5047644;28;20049;-63
2022/03/22 14:20:39;;;;;;;26.58;20.13;;;;;;;;;;5048987;28;20037;-63
2022/03/22 14:23:06;;;;;;;26.25;19.92;;;;;;;;;;5047371;28;20045;-63
2022/03/22 14:25:34;;;;;;;25.13;19.90;;;;;;;;;;5049502;28;20444;-63
2022/03/22 14:28:01;;;;;;;29.80;21.10;;;;;;;;;;5053122;28;20044;-63
2022/03/22 14:30:28;;;;;;;30.42;20.30;;;;;;;;;;5034822;28;20048;-63
2022/03/22 14:32:57;;;;;;;27.60;20.05;;;;;;;;;;5051843;28;20607;-63
2022/03/22 14:38:10;;;;;;;26.73;18.65;;;;;;;;;;5067667;28;20060;-63
2022/03/22 14:40:37;;;;;;;27.52;17.77;;;;;;;;;;5051592;28;20123;-63
2022/03/22 14:43:05;;;;;;;27.52;19.02;;;;;;;;;;5052676;28;20041;-63
2022/03/22 14:45:31;;;;;;;25.23;19.15;;;;;;;;;;5052361;28;20040;-63
2022/03/22 14:47:57;;;;;;;23.27;17.95;;;;;;;;;;5051460;28;20116;-63
2022/03/22 14:50:27;;;;;;;24.90;17.42;;;;;;;;;;5052720;28;20047;-63
2022/03/22 14:55:39;;;;;;;27.20;18.48;;;;;;;;;;5067099;28;20172;-63
2022/03/22 15:00:53;;;;;;;24.35;18.08;;;;;;;;;;5049612;28;20069;-63
2022/03/22 15:03:22;;;;;;;31.25;18.90;;;;;;;;;;5050767;28;20098;-63